Time;durP1;ratioP1;P1;durP2;ratioP2;P2;SDS_P1;SDS_P2;PMS_P1;PMS_P2;Temp;Humidity;BMP_temperature;BMP_pressure;BME280_temperature;BME280_humidity;BME280_pressure;Samples;Min_cycle;Max_cycle;Signal;HPM_P1;HPM_P2
2022/05/02 00:01:07;;;;;;;11.45;9.80;;;;;;;;;;4977042;28;99862;-71
2022/05/02 00:03:33;;;;;;;11.43;10.30;;;;;;;;;;5000263;28;98725;-71
2022/05/02 00:06:00;;;;;;;13.35;9.95;;;;;;;;;;4995583;28;98308;-72
2022/05/02 00:08:29;;;;;;;15.18;10.52;;;;;;;;;;4995283;28;98714;-71
2022/05/02 00:10:55;;;;;;;11.43;10.15;;;;;;;;;;4993620;28;99787;-73
2022/05/02 00:13:21;;;;;;;13.43;10.55;;;;;;;;;;4979494;28;98444;-71
2022/05/02 00:15:48;;;;;;;12.50;10.05;;;;;;;;;;4993444;28;100526;-72
2022/05/02 00:18:14;;;;;;;12.07;10.82;;;;;;;;;;4994290;28;99205;-72
2022/05/02 00:20:41;;;;;;;14.80;10.95;;;;;;;;;;4993141;28;100343;-70
2022/05/02 00:23:08;;;;;;;12.60;10.55;;;;;;;;;;4993379;28;99744;-71
2022/05/02 00:25:35;;;;;;;12.43;10.48;;;;;;;;;;4993325;28;99929;-71
2022/05/02 00:28:01;;;;;;;14.13;10.45;;;;;;;;;;4993575;28;100099;-71
2022/05/02 00:30:28;;;;;;;11.55;10.35;;;;;;;;;;4975546;28;102417;-72
2022/05/02 00:32:55;;;;;;;12.38;10.30;;;;;;;;;;4996726;28;98578;-72
2022/05/02 00:35:22;;;;;;;11.50;10.32;;;;;;;;;;4992994;28;99880;-71
2022/05/02 00:37:49;;;;;;;15.13;10.65;;;;;;;;;;4993593;28;98355;-71
2022/05/02 00:40:17;;;;;;;13.18;9.85;;;;;;;;;;4993440;28;98914;-72
2022/05/02 00:42:43;;;;;;;12.90;10.25;;;;;;;;;;4994260;28;98909;-71
2022/05/02 00:45:11;;;;;;;12.95;10.65;;;;;;;;;;4993546;28;98460;-71
2022/05/02 00:47:37;;;;;;;11.45;10.27;;;;;;;;;;4993207;28;99704;-71
2022/05/02 00:50:04;;;;;;;10.20;9.30;;;;;;;;;;4992318;28;100500;-71
2022/05/02 00:52:30;;;;;;;10.40;9.10;;;;;;;;;;4994142;28;98542;-71
2022/05/02 00:54:57;;;;;;;11.93;9.82;;;;;;;;;;4996954;28;98983;-71
2022/05/02 00:57:24;;;;;;;10.73;9.57;;;;;;;;;;4993471;28;98376;-71
2022/05/02 00:59:50;;;;;;;11.35;8.77;;;;;;;;;;4993855;28;99674;-71
2022/05/02 01:02:16;;;;;;;9.25;8.45;;;;;;;;;;4993028;28;99719;-71
2022/05/02 01:04:43;;;;;;;9.23;8.15;;;;;;;;;;4993971;28;98335;-71
2022/05/02 01:07:11;;;;;;;12.10;9.38;;;;;;;;;;4994238;28;99564;-71
2022/05/02 01:09:39;;;;;;;10.90;8.45;;;;;;;;;;5003371;28;99652;-71
2022/05/02 01:12:09;;;;;;;9.95;8.88;;;;;;;;;;5013753;28;98383;-71
2022/05/02 01:14:36;;;;;;;10.23;8.65;;;;;;;;;;5013327;28;99356;-71
2022/05/02 01:17:03;;;;;;;9.80;8.63;;;;;;;;;;5016218;28;99653;-71
2022/05/02 01:19:30;;;;;;;9.73;8.63;;;;;;;;;;5013665;28;99692;-72
2022/05/02 01:21:56;;;;;;;9.50;8.50;;;;;;;;;;5013262;28;99653;-73
2022/05/02 01:24:31;;;;;;;10.43;8.43;;;;;;;;;;5013346;28;98421;-71
2022/05/02 01:26:58;;;;;;;9.00;8.10;;;;;;;;;;5013338;28;99827;-72
2022/05/02 01:29:25;;;;;;;13.70;9.00;;;;;;;;;;5012701;28;99731;-72
2022/05/02 01:31:55;;;;;;;9.80;8.80;;;;;;;;;;5013894;28;97572;-72
2022/05/02 01:34:21;;;;;;;9.93;8.85;;;;;;;;;;5013480;28;98797;-71
2022/05/02 01:36:48;;;;;;;9.50;8.57;;;;;;;;;;5013178;28;99507;-71
2022/05/02 01:39:14;;;;;;;10.52;9.52;;;;;;;;;;5015966;28;99074;-72
2022/05/02 01:41:40;;;;;;;10.93;9.85;;;;;;;;;;5012811;28;99138;-72
2022/05/02 01:44:07;;;;;;;10.93;9.90;;;;;;;;;;5013142;28;99837;-71
2022/05/02 01:46:33;;;;;;;11.00;9.70;;;;;;;;;;5013446;28;99734;-71
2022/05/02 01:49:00;;;;;;;10.82;9.57;;;;;;;;;;5012809;28;99529;-72
2022/05/02 01:51:26;;;;;;;14.27;9.70;;;;;;;;;;5012974;28;99381;-72
2022/05/02 01:53:52;;;;;;;10.68;9.60;;;;;;;;;;4995496;28;98991;-71
2022/05/02 01:56:19;;;;;;;10.65;9.50;;;;;;;;;;5013134;28;98993;-71
2022/05/02 01:58:45;;;;;;;11.55;9.38;;;;;;;;;;5012318;28;98426;-71
2022/05/02 02:01:11;;;;;;;10.07;9.13;;;;;;;;;;5015987;28;99682;-71
2022/05/02 02:03:38;;;;;;;13.85;9.20;;;;;;;;;;5012709;28;99090;-72
2022/05/02 02:06:05;;;;;;;9.93;8.95;;;;;;;;;;5013005;28;100225;-72
2022/05/02 02:08:32;;;;;;;11.88;8.50;;;;;;;;;;5012360;28;100778;-71
2022/05/02 02:11:00;;;;;;;11.60;8.10;;;;;;;;;;5013116;28;98556;-72
2022/05/02 02:13:26;;;;;;;9.80;8.50;;;;;;;;;;5017137;28;100639;-71
2022/05/02 02:15:53;;;;;;;9.95;8.60;;;;;;;;;;5012704;28;99820;-71
2022/05/02 02:18:19;;;;;;;9.45;8.52;;;;;;;;;;5012954;28;98431;-71
2022/05/02 02:20:47;;;;;;;8.75;7.95;;;;;;;;;;5017258;28;99436;-71
2022/05/02 02:23:14;;;;;;;10.70;8.68;;;;;;;;;;5016452;28;98349;-71
2022/05/02 02:25:40;;;;;;;10.05;9.07;;;;;;;;;;5015989;28;98957;-71
2022/05/02 02:28:07;;;;;;;9.70;8.75;;;;;;;;;;5015215;28;101671;-71
2022/05/02 02:30:34;;;;;;;11.65;9.50;;;;;;;;;;4998147;28;98432;-72
2022/05/02 02:33:00;;;;;;;10.73;9.50;;;;;;;;;;5016141;28;99540;-71
2022/05/02 02:35:27;;;;;;;10.40;8.68;;;;;;;;;;5015877;28;99553;-72
2022/05/02 02:37:54;;;;;;;10.27;9.18;;;;;;;;;;5016325;28;98453;-71
2022/05/02 02:40:20;;;;;;;10.88;9.75;;;;;;;;;;5015646;28;98946;-71
2022/05/02 02:42:47;;;;;;;9.98;9.07;;;;;;;;;;5018718;28;100407;-72
2022/05/02 02:45:13;;;;;;;11.27;10.07;;;;;;;;;;5016555;28;99285;-71
2022/05/02 02:47:40;;;;;;;10.27;9.30;;;;;;;;;;5014938;28;99616;-71
2022/05/02 02:50:06;;;;;;;12.23;9.77;;;;;;;;;;5016043;28;98392;-71
2022/05/02 02:52:33;;;;;;;10.73;9.63;;;;;;;;;;5015513;28;100369;-72
2022/05/02 02:54:59;;;;;;;10.80;9.68;;;;;;;;;;5015138;28;99257;-71
2022/05/02 02:57:26;;;;;;;12.68;9.43;;;;;;;;;;4997946;28;98422;-71
2022/05/02 02:59:52;;;;;;;11.55;9.15;;;;;;;;;;5015528;28;100434;-71
2022/05/02 03:02:18;;;;;;;11.77;9.93;;;;;;;;;;5015368;28;99233;-71
2022/05/02 03:07:30;;;;;;;10.40;9.32;;;;;;;;;;5014846;28;99473;-71
2022/05/02 03:09:58;;;;;;;11.90;9.55;;;;;;;;;;5016177;28;98358;-71
2022/05/02 03:12:25;;;;;;;10.32;9.32;;;;;;;;;;5015713;28;99251;-71
2022/05/02 03:14:51;;;;;;;10.98;9.43;;;;;;;;;;5015214;28;99598;-71
2022/05/02 03:17:17;;;;;;;10.43;9.15;;;;;;;;;;5015172;28;99137;-71
2022/05/02 03:19:44;;;;;;;12.05;10.18;;;;;;;;;;5015356;28;101333;-71
2022/05/02 03:22:10;;;;;;;10.73;9.23;;;;;;;;;;5013789;28;99886;-71
2022/05/02 03:24:36;;;;;;;11.38;10.27;;;;;;;;;;5015565;28;98365;-70
2022/05/02 03:27:03;;;;;;;11.18;9.98;;;;;;;;;;5017469;28;101214;-71
2022/05/02 03:29:29;;;;;;;12.13;9.35;;;;;;;;;;5014693;28;98520;-71
2022/05/02 03:31:56;;;;;;;10.80;9.70;;;;;;;;;;5014229;28;99451;-70
2022/05/02 03:34:22;;;;;;;10.68;9.13;;;;;;;;;;5014638;28;98662;-71
2022/05/02 03:36:48;;;;;;;10.38;9.27;;;;;;;;;;5015007;28;98444;-71
2022/05/02 03:39:15;;;;;;;12.15;9.60;;;;;;;;;;5015125;28;100363;-71
2022/05/02 03:41:41;;;;;;;10.70;9.27;;;;;;;;;;5013944;28;101193;-71
2022/05/02 03:44:07;;;;;;;11.18;9.63;;;;;;;;;;5015319;28;98406;-71
2022/05/02 03:46:33;;;;;;;9.90;8.90;;;;;;;;;;4997216;28;100224;-71
2022/05/02 03:49:00;;;;;;;10.60;8.82;;;;;;;;;;5016653;28;100659;-72
2022/05/02 03:51:27;;;;;;;12.73;9.13;;;;;;;;;;5014716;28;99219;-72
2022/05/02 03:53:53;;;;;;;9.82;8.80;;;;;;;;;;5015062;28;99658;-71
2022/05/02 03:56:20;;;;;;;10.13;9.13;;;;;;;;;;5014919;28;98525;-71
2022/05/02 03:58:46;;;;;;;10.57;9.48;;;;;;;;;;5015069;28;99952;-71
2022/05/02 04:01:12;;;;;;;10.07;9.07;;;;;;;;;;5014395;28;99755;-71
2022/05/02 04:03:39;;;;;;;11.80;9.23;;;;;;;;;;5014631;28;98435;-72
2022/05/02 04:06:05;;;;;;;11.07;9.20;;;;;;;;;;5014292;28;99569;-71
2022/05/02 04:08:32;;;;;;;11.85;9.50;;;;;;;;;;4996320;28;100474;-71
2022/05/02 04:10:58;;;;;;;10.35;8.88;;;;;;;;;;5016913;28;98424;-71
2022/05/02 04:13:25;;;;;;;10.63;9.52;;;;;;;;;;5013730;28;99031;-71
2022/05/02 04:15:51;;;;;;;13.27;9.43;;;;;;;;;;5014357;28;98455;-71
2022/05/02 04:18:18;;;;;;;10.40;9.35;;;;;;;;;;4996930;28;98835;-72
2022/05/02 04:20:44;;;;;;;13.15;9.82;;;;;;;;;;5013991;28;99269;-71
2022/05/02 04:23:10;;;;;;;13.43;9.10;;;;;;;;;;5016617;28;97691;-71
2022/05/02 04:25:37;;;;;;;12.90;9.65;;;;;;;;;;4997316;28;98401;-71
2022/05/02 04:28:03;;;;;;;11.40;10.20;;;;;;;;;;5014386;28;99646;-71
2022/05/02 04:30:30;;;;;;;12.27;9.57;;;;;;;;;;5016566;28;99090;-71
2022/05/02 04:32:56;;;;;;;11.60;9.43;;;;;;;;;;5013690;28;99459;-72
2022/05/02 04:35:22;;;;;;;12.57;10.18;;;;;;;;;;5014339;28;98429;-71
2022/05/02 04:37:49;;;;;;;13.32;10.57;;;;;;;;;;5013413;28;100047;-72
2022/05/02 04:40:15;;;;;;;11.55;9.77;;;;;;;;;;5013075;28;99478;-72
2022/05/02 04:42:42;;;;;;;11.55;9.77;;;;;;;;;;5013992;28;98351;-71
2022/05/02 04:45:08;;;;;;;14.23;9.90;;;;;;;;;;5014084;28;98943;-72
2022/05/02 04:47:35;;;;;;;13.25;11.48;;;;;;;;;;4996124;28;99959;-72
2022/05/02 04:50:02;;;;;;;10.68;9.52;;;;;;;;;;5013524;28;98273;-72
2022/05/02 04:52:29;;;;;;;11.73;10.63;;;;;;;;;;5017139;28;99373;-72
2022/05/02 04:54:55;;;;;;;20.08;10.13;;;;;;;;;;5012953;28;98988;-72
2022/05/02 04:57:21;;;;;;;15.48;11.05;;;;;;;;;;5013092;28;100253;-73
2022/05/02 04:59:48;;;;;;;11.90;10.60;;;;;;;;;;5013224;28;98922;-72
2022/05/02 05:02:14;;;;;;;11.18;9.95;;;;;;;;;;5012762;28;98395;-74
2022/05/02 05:04:41;;;;;;;16.20;10.95;;;;;;;;;;5013950;28;99370;-72
2022/05/02 05:07:07;;;;;;;12.93;11.00;;;;;;;;;;4994823;28;101919;-71
2022/05/02 05:09:33;;;;;;;11.75;10.55;;;;;;;;;;5012978;28;98354;-71
2022/05/02 05:12:15;;;;;;;14.02;9.75;;;;;;;;;;5013247;28;99632;-71
2022/05/02 05:17:51;;;;;;;10.35;9.27;;;;;;;;;;5013866;28;99184;-71
2022/05/02 05:20:32;;;;;;;10.95;9.32;;;;;;;;;;5012308;28;101912;-70
2022/05/02 05:23:05;;;;;;;9.98;9.02;;;;;;;;;;5013391;28;99560;-73
2022/05/02 05:25:50;;;;;;;12.05;9.57;;;;;;;;;;5013498;28;99738;-72
2022/05/02 05:28:26;;;;;;;13.20;8.93;;;;;;;;;;5013029;28;99699;-72
2022/05/02 05:30:56;;;;;;;14.20;9.15;;;;;;;;;;5013536;28;98250;-72
2022/05/02 05:33:25;;;;;;;33.00;9.67;;;;;;;;;;5013089;28;99256;-73
2022/05/02 05:36:06;;;;;;;31.17;10.45;;;;;;;;;;5013160;28;99657;-72
2022/05/02 05:38:42;;;;;;;54.03;11.95;;;;;;;;;;5016427;28;97652;-73
2022/05/02 05:41:14;;;;;;;50.30;10.75;;;;;;;;;;5012478;28;100140;-73
2022/05/02 05:43:49;;;;;;;50.58;10.77;;;;;;;;;;5012436;28;98334;-72
2022/05/02 05:46:28;;;;;;;38.63;11.55;;;;;;;;;;5011777;28;99522;-72
2022/05/02 05:49:02;;;;;;;34.90;11.43;;;;;;;;;;5012440;28;98943;-72
2022/05/02 05:51:34;;;;;;;36.30;11.93;;;;;;;;;;4994763;28;98329;-72
2022/05/02 05:54:20;;;;;;;42.85;12.38;;;;;;;;;;5012950;28;100636;-72
2022/05/02 05:57:05;;;;;;;50.20;12.40;;;;;;;;;;5011269;28;99719;-71
2022/05/02 05:59:50;;;;;;;51.83;12.02;;;;;;;;;;5012149;28;99122;-72
2022/05/02 06:02:22;;;;;;;69.18;12.65;;;;;;;;;;5015130;28;100990;-71
2022/05/02 06:04:49;;;;;;;37.80;12.10;;;;;;;;;;4994377;28;97701;-69
2022/05/02 06:07:18;;;;;;;22.67;10.90;;;;;;;;;;5012239;28;100117;-71
2022/05/02 06:09:46;;;;;;;18.08;11.15;;;;;;;;;;5011679;28;99372;-72
2022/05/02 06:12:13;;;;;;;34.75;11.10;;;;;;;;;;5011557;28;99215;-72
2022/05/02 06:20:16;;;;;;;20.80;11.95;;;;;;;;;;5011557;28;98495;-71
2022/05/02 06:22:44;;;;;;;26.52;11.70;;;;;;;;;;5011733;28;100105;-72
2022/05/02 06:25:12;;;;;;;20.65;11.45;;;;;;;;;;5014895;28;99658;-71
2022/05/02 06:27:41;;;;;;;13.13;11.85;;;;;;;;;;5011727;28;99584;-71
2022/05/02 06:30:08;;;;;;;18.35;11.98;;;;;;;;;;5011722;28;99328;-72
2022/05/02 06:32:38;;;;;;;18.48;12.23;;;;;;;;;;5011745;28;98255;-72
2022/05/02 06:35:04;;;;;;;18.52;12.45;;;;;;;;;;5012079;28;99302;-73
2022/05/02 06:37:47;;;;;;;16.83;11.60;;;;;;;;;;5007462;28;101141;-72
2022/05/02 06:40:14;;;;;;;12.98;11.65;;;;;;;;;;5002056;28;98410;-72
2022/05/02 06:42:59;;;;;;;18.30;11.80;;;;;;;;;;4999846;28;100749;-73
2022/05/02 06:45:30;;;;;;;14.13;11.85;;;;;;;;;;4999154;28;99011;-72
2022/05/02 06:48:15;;;;;;;18.33;12.23;;;;;;;;;;4981172;28;99667;-71
2022/05/02 06:50:45;;;;;;;19.02;11.55;;;;;;;;;;4999473;28;100144;-71
2022/05/02 06:53:18;;;;;;;15.32;11.70;;;;;;;;;;5001559;28;98590;-71
2022/05/02 06:55:53;;;;;;;15.40;12.27;;;;;;;;;;4982486;28;101091;-72
2022/05/02 06:58:29;;;;;;;23.27;11.70;;;;;;;;;;4999938;28;100117;-70
2022/05/02 07:01:01;;;;;;;12.75;11.52;;;;;;;;;;4995607;28;98405;-72
2022/05/02 07:03:46;;;;;;;14.05;11.07;;;;;;;;;;4995276;28;99702;-71
2022/05/02 07:06:15;;;;;;;12.95;11.85;;;;;;;;;;4999094;28;99365;-73
2022/05/02 07:08:50;;;;;;;15.38;11.60;;;;;;;;;;5004873;28;98451;-72
2022/05/02 07:11:20;;;;;;;20.10;12.43;;;;;;;;;;5004396;28;99803;-73
2022/05/02 07:14:10;;;;;;;17.25;12.70;;;;;;;;;;5003501;28;98388;-72
2022/05/02 07:16:40;;;;;;;14.35;11.75;;;;;;;;;;5015722;28;100999;-72
2022/05/02 07:19:06;;;;;;;21.25;12.07;;;;;;;;;;5004707;28;100211;-72
2022/05/02 07:21:38;;;;;;;18.48;11.75;;;;;;;;;;5002966;28;97795;-74
2022/05/02 07:24:29;;;;;;;16.35;11.95;;;;;;;;;;4999727;28;99974;-72
2022/05/02 07:27:14;;;;;;;13.40;11.25;;;;;;;;;;5002639;28;99292;-72
2022/05/02 07:29:49;;;;;;;16.98;11.85;;;;;;;;;;5001743;28;99146;-72
2022/05/02 07:32:15;;;;;;;30.30;12.18;;;;;;;;;;5006250;28;100649;-73
2022/05/02 07:34:42;;;;;;;12.52;11.27;;;;;;;;;;5004542;28;98520;-73
2022/05/02 07:37:11;;;;;;;14.07;11.00;;;;;;;;;;4999269;28;99464;-72
2022/05/02 07:39:39;;;;;;;13.65;11.80;;;;;;;;;;5001920;28;100545;-72
2022/05/02 07:42:05;;;;;;;12.23;11.10;;;;;;;;;;4998113;28;98482;-71
2022/05/02 07:44:33;;;;;;;20.05;12.00;;;;;;;;;;4979306;28;99462;-74
2022/05/02 07:47:04;;;;;;;14.70;13.13;;;;;;;;;;5002765;28;98286;-72
2022/05/02 07:49:32;;;;;;;21.20;12.07;;;;;;;;;;5000902;28;98388;-73
2022/05/02 07:52:00;;;;;;;13.93;11.65;;;;;;;;;;5000830;28;99391;-74
2022/05/02 07:54:30;;;;;;;27.55;11.55;;;;;;;;;;5004091;28;100395;-77
2022/05/02 07:57:00;;;;;;;14.85;10.77;;;;;;;;;;5003183;28;100584;-74
2022/05/02 07:59:30;;;;;;;12.80;11.43;;;;;;;;;;4997932;28;100544;-73
2022/05/02 08:01:56;;;;;;;12.43;11.05;;;;;;;;;;5003316;28;98325;-73
2022/05/02 08:04:30;;;;;;;36.15;11.98;;;;;;;;;;4999477;28;99035;-73
2022/05/02 08:07:06;;;;;;;13.32;11.18;;;;;;;;;;5003391;28;100006;-73
2022/05/02 08:09:51;;;;;;;19.13;11.05;;;;;;;;;;4998942;28;98383;-73
2022/05/02 08:12:28;;;;;;;12.02;10.60;;;;;;;;;;4998527;28;99659;-72
2022/05/02 08:15:08;;;;;;;23.77;11.27;;;;;;;;;;4998987;28;99195;-73
2022/05/02 08:17:40;;;;;;;13.95;9.80;;;;;;;;;;5006013;28;98502;-72
2022/05/02 08:20:22;;;;;;;10.05;9.15;;;;;;;;;;5002965;28;100709;-72
2022/05/02 08:28:45;;;;;;;30.92;9.95;;;;;;;;;;5001289;28;99251;-72
2022/05/02 08:31:17;;;;;;;14.63;9.50;;;;;;;;;;5003219;28;98455;-73
2022/05/02 08:33:50;;;;;;;19.55;10.32;;;;;;;;;;5002957;28;98682;-73
2022/05/02 08:36:29;;;;;;;16.55;10.55;;;;;;;;;;5003765;28;99537;-72
2022/05/02 08:39:03;;;;;;;28.13;10.95;;;;;;;;;;4996614;28;97622;-73
2022/05/02 08:41:33;;;;;;;18.67;10.73;;;;;;;;;;5001154;28;99030;-73
2022/05/02 08:44:16;;;;;;;10.63;9.05;;;;;;;;;;5004686;28;100025;-73
2022/05/02 08:46:42;;;;;;;9.43;8.50;;;;;;;;;;5003139;28;99217;-72
2022/05/02 08:49:33;;;;;;;11.50;9.70;;;;;;;;;;5003455;28;99902;-72
2022/05/02 08:52:00;;;;;;;38.50;12.27;;;;;;;;;;4998057;28;98424;-72
2022/05/02 08:54:32;;;;;;;11.30;10.10;;;;;;;;;;5000714;28;101509;-73
2022/05/02 08:57:11;;;;;;;20.85;10.93;;;;;;;;;;4996917;28;100134;-73
2022/05/02 08:59:46;;;;;;;35.45;9.25;;;;;;;;;;4999955;28;98415;-73
2022/05/02 09:02:12;;;;;;;22.83;8.50;;;;;;;;;;4981366;28;100583;-75
2022/05/02 09:04:57;;;;;;;9.57;7.85;;;;;;;;;;5005217;28;98042;-73
2022/05/02 09:07:30;;;;;;;8.70;8.02;;;;;;;;;;5003021;28;98450;-74
2022/05/02 09:09:59;;;;;;;13.15;8.25;;;;;;;;;;5000884;28;99912;-74
2022/05/02 09:12:26;;;;;;;9.25;7.65;;;;;;;;;;5003176;28;99114;-74
2022/05/02 09:14:52;;;;;;;7.85;7.18;;;;;;;;;;5002584;28;100208;-75
2022/05/02 09:17:40;;;;;;;7.43;6.72;;;;;;;;;;5002464;28;99966;-73
2022/05/02 09:20:12;;;;;;;17.17;7.32;;;;;;;;;;4997841;28;98222;-75
2022/05/02 09:22:57;;;;;;;10.77;8.05;;;;;;;;;;4997829;28;99153;-79
2022/05/02 09:25:40;;;;;;;9.00;8.10;;;;;;;;;;5004521;28;100086;-73
2022/05/02 09:28:20;;;;;;;8.73;7.32;;;;;;;;;;4997606;28;99862;-75
2022/05/02 09:31:06;;;;;;;17.48;8.27;;;;;;;;;;4998334;28;98939;-74
2022/05/02 09:33:37;;;;;;;9.52;7.93;;;;;;;;;;4978123;28;98498;-73
2022/05/02 09:36:26;;;;;;;7.30;6.45;;;;;;;;;;5002137;28;99423;-73
2022/05/02 09:38:57;;;;;;;14.63;6.63;;;;;;;;;;4969162;28;100575;-70
2022/05/02 09:41:31;;;;;;;8.95;6.43;;;;;;;;;;5003662;28;98454;-73
2022/05/02 09:50:20;;;;;;;30.20;7.22;;;;;;;;;;5006456;28;98476;-73
2022/05/02 09:52:56;;;;;;;11.93;5.85;;;;;;;;;;4996784;28;99656;-73
2022/05/02 09:58:14;;;;;;;22.13;7.28;;;;;;;;;;5001154;28;98865;-69
2022/05/02 10:03:37;;;;;;;7.13;6.43;;;;;;;;;;5000538;28;98504;-70
2022/05/02 10:06:09;;;;;;;8.40;7.68;;;;;;;;;;5002789;28;99469;-70
2022/05/02 10:09:00;;;;;;;8.27;7.30;;;;;;;;;;5001250;28;99192;-69
2022/05/02 10:11:27;;;;;;;20.67;7.27;;;;;;;;;;4996229;28;98482;-73
2022/05/02 10:13:53;;;;;;;8.30;7.45;;;;;;;;;;5006903;28;99594;-73
2022/05/02 10:16:35;;;;;;;12.45;7.82;;;;;;;;;;5001173;28;100460;-73
2022/05/02 10:19:01;;;;;;;;;;;;;;;;;;4995819;28;99448;-73
2022/05/02 10:21:52;;;;;;;16.02;8.30;;;;;;;;;;5002198;28;129090;-74
2022/05/02 10:24:44;;;;;;;16.53;7.00;;;;;;;;;;4984168;28;98867;-73
2022/05/02 10:27:29;;;;;;;8.10;7.38;;;;;;;;;;4998959;28;98848;-73
2022/05/02 10:30:01;;;;;;;9.02;7.35;;;;;;;;;;4999628;28;99777;-74
2022/05/02 10:32:30;;;;;;;8.15;7.18;;;;;;;;;;5003247;28;99289;-74
2022/05/02 10:35:02;;;;;;;7.40;6.80;;;;;;;;;;5000493;28;100422;-72
2022/05/02 10:37:31;;;;;;;9.85;7.03;;;;;;;;;;5004096;28;100457;-73
2022/05/02 10:40:01;;;;;;;10.25;7.13;;;;;;;;;;5000463;28;99645;-73
2022/05/02 10:42:30;;;;;;;9.47;7.20;;;;;;;;;;5004829;28;99793;-74
2022/05/02 10:45:05;;;;;;;7.47;6.53;;;;;;;;;;4986228;28;98531;-74
2022/05/02 10:47:47;;;;;;;10.50;7.38;;;;;;;;;;5004735;28;99468;-74
2022/05/02 10:50:21;;;;;;;8.20;6.88;;;;;;;;;;5001854;28;99226;-75
2022/05/02 10:52:47;;;;;;;8.10;7.30;;;;;;;;;;5004105;28;98568;-75
2022/05/02 10:55:20;;;;;;;7.82;7.05;;;;;;;;;;4982219;28;99537;-76
2022/05/02 10:57:51;;;;;;;8.15;6.90;;;;;;;;;;5000445;28;101267;-74
2022/05/02 11:00:19;;;;;;;11.52;6.72;;;;;;;;;;5006934;28;98438;-74
2022/05/02 11:03:03;;;;;;;10.48;6.45;;;;;;;;;;5006091;28;99560;-73
2022/05/02 11:05:55;;;;;;;7.18;6.68;;;;;;;;;;5006409;28;98991;-73
2022/05/02 11:08:34;;;;;;;7.53;6.90;;;;;;;;;;5001165;28;99382;-74
2022/05/02 11:11:05;;;;;;;8.10;6.28;;;;;;;;;;5004362;28;100648;-73
2022/05/02 11:13:44;;;;;;;6.90;6.32;;;;;;;;;;5004255;28;99571;-73
2022/05/02 11:16:16;;;;;;;28.00;23.35;;;;;;;;;;5006788;28;99465;-73
2022/05/02 11:21:37;;;;;;;6.82;6.32;;;;;;;;;;5007680;28;98423;-73
2022/05/02 11:24:16;;;;;;;8.68;5.97;;;;;;;;;;5002201;28;101395;-73
2022/05/02 11:26:46;;;;;;;6.20;5.65;;;;;;;;;;5005732;28;98361;-74
2022/05/02 11:29:13;;;;;;;9.82;6.00;;;;;;;;;;5003179;28;99422;-75
2022/05/02 11:32:01;;;;;;;16.55;6.00;;;;;;;;;;5004998;28;99806;-75
2022/05/02 11:34:41;;;;;;;8.23;6.40;;;;;;;;;;5014693;28;98405;-75
2022/05/02 11:37:15;;;;;;;12.25;6.82;;;;;;;;;;5015127;28;99806;-73
2022/05/02 11:39:54;;;;;;;13.73;7.05;;;;;;;;;;5014831;28;99748;-74
2022/05/02 11:42:22;;;;;;;7.03;6.07;;;;;;;;;;4981394;28;97635;-74
2022/05/02 11:44:48;;;;;;;6.32;5.93;;;;;;;;;;5017554;28;98897;-74
2022/05/02 11:47:25;;;;;;;6.50;5.70;;;;;;;;;;5014986;28;98413;-73
2022/05/02 11:49:51;;;;;;;7.22;6.50;;;;;;;;;;5014455;28;99627;-74
2022/05/02 11:52:28;;;;;;;6.55;5.95;;;;;;;;;;5014602;28;100097;-73
2022/05/02 11:54:57;;;;;;;13.05;6.40;;;;;;;;;;5014013;28;98454;-74
2022/05/02 11:57:28;;;;;;;6.13;5.60;;;;;;;;;;5014143;28;99396;-74
2022/05/02 12:00:06;;;;;;;7.82;5.82;;;;;;;;;;5014569;28;99628;-74
2022/05/02 12:02:48;;;;;;;20.00;6.80;;;;;;;;;;5011855;28;99543;-73
2022/05/02 12:05:17;;;;;;;12.00;6.15;;;;;;;;;;5014762;28;99437;-73
2022/05/02 12:07:54;;;;;;;6.97;6.30;;;;;;;;;;5017964;28;99222;-73
2022/05/02 12:10:32;;;;;;;6.97;6.07;;;;;;;;;;5014599;28;100184;-74
2022/05/02 12:12:59;;;;;;;7.57;6.40;;;;;;;;;;4996923;28;99941;-73
2022/05/02 12:15:25;;;;;;;7.45;6.40;;;;;;;;;;5014145;28;99062;-73
2022/05/02 12:17:53;;;;;;;6.78;6.15;;;;;;;;;;5014628;28;100172;-72
2022/05/02 12:20:29;;;;;;;11.57;6.43;;;;;;;;;;5013716;28;99964;-75
2022/05/02 12:23:00;;;;;;;8.02;6.55;;;;;;;;;;5014373;28;98453;-75
2022/05/02 12:25:28;;;;;;;9.15;6.20;;;;;;;;;;5014558;28;99393;-77
2022/05/02 12:27:56;;;;;;;13.60;7.63;;;;;;;;;;4996307;28;101519;-72
2022/05/02 12:30:24;;;;;;;8.18;7.22;;;;;;;;;;5017711;28;98363;-73
2022/05/02 12:32:51;;;;;;;9.82;7.07;;;;;;;;;;5014195;28;98762;-73
2022/05/02 12:35:19;;;;;;;11.77;6.82;;;;;;;;;;5014453;28;99088;-73
2022/05/02 12:37:47;;;;;;;8.07;7.30;;;;;;;;;;5014397;28;99602;-73
2022/05/02 12:40:15;;;;;;;10.07;6.90;;;;;;;;;;5013488;28;100321;-73
2022/05/02 12:42:44;;;;;;;11.13;7.20;;;;;;;;;;5011351;28;98371;-72
2022/05/02 12:45:11;;;;;;;10.18;8.00;;;;;;;;;;5014406;28;99537;-73
2022/05/02 12:47:45;;;;;;;7.82;7.30;;;;;;;;;;5013492;28;99932;-73
2022/05/02 12:50:13;;;;;;;11.15;7.70;;;;;;;;;;5014203;28;98486;-73
2022/05/02 12:52:47;;;;;;;8.27;7.47;;;;;;;;;;5017157;28;99467;-73
2022/05/02 12:55:14;;;;;;;15.20;7.43;;;;;;;;;;5013979;28;98463;-74
2022/05/02 13:00:37;;;;;;;12.60;7.90;;;;;;;;;;5004266;28;100421;-73
2022/05/02 13:03:09;;;;;;;12.75;7.32;;;;;;;;;;5001003;28;98414;-75
2022/05/02 13:05:45;;;;;;;15.90;7.45;;;;;;;;;;4985937;28;99952;-74
2022/05/02 13:08:13;;;;;;;12.35;7.97;;;;;;;;;;4997055;28;100457;-75
2022/05/02 13:10:39;;;;;;;21.98;6.95;;;;;;;;;;4997763;28;98293;-74
2022/05/02 13:13:05;;;;;;;16.88;8.48;;;;;;;;;;5007119;28;99910;-74
2022/05/02 13:15:37;;;;;;;24.15;7.28;;;;;;;;;;5000929;28;98678;-74
2022/05/02 13:18:24;;;;;;;8.07;7.25;;;;;;;;;;5003823;28;99407;-74
2022/05/02 13:21:11;;;;;;;8.85;7.75;;;;;;;;;;4998693;28;99655;-73
2022/05/02 13:23:37;;;;;;;8.68;7.85;;;;;;;;;;5001974;28;97955;-74
2022/05/02 13:26:26;;;;;;;33.63;9.73;;;;;;;;;;5001289;28;99025;-73
2022/05/02 13:29:18;;;;;;;12.90;8.57;;;;;;;;;;4997434;28;99914;-74
2022/05/02 13:31:45;;;;;;;24.55;9.27;;;;;;;;;;4995117;28;100143;-71
2022/05/02 13:34:19;;;;;;;63.60;11.07;;;;;;;;;;5002811;28;99487;-72
2022/05/02 13:36:47;;;;;;;17.98;8.70;;;;;;;;;;4980523;28;99662;-75
2022/05/02 13:39:19;;;;;;;15.27;8.50;;;;;;;;;;5001351;28;99427;-73
2022/05/02 13:42:10;;;;;;;8.95;7.95;;;;;;;;;;5003260;28;99841;-74
2022/05/02 13:44:52;;;;;;;13.75;8.00;;;;;;;;;;4984944;28;98423;-73
2022/05/02 13:47:20;;;;;;;11.57;8.57;;;;;;;;;;5001027;28;99592;-74
2022/05/02 13:49:53;;;;;;;32.55;8.65;;;;;;;;;;5003400;28;100646;-73
2022/05/02 13:52:27;;;;;;;10.73;7.93;;;;;;;;;;5000558;28;98580;-72
2022/05/02 13:54:54;;;;;;;18.05;7.93;;;;;;;;;;4993522;28;99891;-73
2022/05/02 13:57:28;;;;;;;8.77;8.07;;;;;;;;;;5002842;28;100481;-73
2022/05/02 13:59:58;;;;;;;19.23;9.18;;;;;;;;;;4960532;28;98458;-73
2022/05/02 14:02:55;;;;;;;9.95;8.63;;;;;;;;;;4963738;28;100120;-72
2022/05/02 14:05:30;;;;;;;13.82;8.52;;;;;;;;;;4959589;28;98532;-72
2022/05/02 14:08:01;;;;;;;16.45;8.40;;;;;;;;;;4957255;28;98299;-73
2022/05/02 14:10:29;;;;;;;18.77;7.85;;;;;;;;;;4952522;28;99523;-73
2022/05/02 14:12:56;;;;;;;8.00;7.13;;;;;;;;;;4963463;28;98509;-74
2022/05/02 14:15:23;;;;;;;8.27;7.53;;;;;;;;;;4961908;28;98853;-73
2022/05/02 14:17:51;;;;;;;11.95;8.30;;;;;;;;;;4967744;28;100511;-71
2022/05/02 14:20:23;;;;;;;8.00;7.28;;;;;;;;;;4969128;28;98384;-73
2022/05/02 14:22:52;;;;;;;9.23;8.07;;;;;;;;;;4971563;28;99179;-73
2022/05/02 14:25:25;;;;;;;9.20;8.30;;;;;;;;;;4964605;28;98338;-73
2022/05/02 14:28:08;;;;;;;10.35;8.55;;;;;;;;;;4969616;28;99654;-72
2022/05/02 14:30:38;;;;;;;12.45;7.85;;;;;;;;;;4962752;28;100015;-73
2022/05/02 14:33:05;;;;;;;9.85;8.00;;;;;;;;;;4963601;28;98396;-74
2022/05/02 14:35:40;;;;;;;17.45;8.82;;;;;;;;;;4967143;28;99364;-74
2022/05/02 14:38:08;;;;;;;9.27;8.35;;;;;;;;;;4962988;28;100101;-76
2022/05/02 14:40:41;;;;;;;17.52;7.45;;;;;;;;;;4970750;28;97692;-73
2022/05/02 14:43:08;;;;;;;8.77;7.38;;;;;;;;;;4963426;28;99131;-74
2022/05/02 14:45:35;;;;;;;8.88;7.55;;;;;;;;;;4968182;28;99673;-74
2022/05/02 14:48:06;;;;;;;8.35;7.60;;;;;;;;;;4967623;28;99218;-78
2022/05/02 14:50:33;;;;;;;8.45;7.57;;;;;;;;;;4959692;28;99340;-73
2022/05/02 14:53:09;;;;;;;18.17;8.30;;;;;;;;;;4968660;28;98331;-74
2022/05/02 14:55:37;;;;;;;9.65;7.80;;;;;;;;;;4969194;28;99431;-73
2022/05/02 14:58:06;;;;;;;12.70;7.72;;;;;;;;;;4978789;28;99607;-73
2022/05/02 15:00:39;;;;;;;8.77;7.97;;;;;;;;;;5007458;28;99029;-75
2022/05/02 15:03:07;;;;;;;9.02;7.28;;;;;;;;;;5007737;28;99353;-73
2022/05/02 15:05:35;;;;;;;9.25;7.15;;;;;;;;;;4991236;28;98367;-70
2022/05/02 15:08:20;;;;;;;10.38;7.40;;;;;;;;;;5011786;28;98325;-74
2022/05/02 15:10:53;;;;;;;7.72;6.72;;;;;;;;;;5003226;28;100614;-72
2022/05/02 15:13:33;;;;;;;8.23;7.57;;;;;;;;;;5002173;28;99166;-73
2022/05/02 15:16:04;;;;;;;7.80;7.03;;;;;;;;;;4998297;28;100357;-73
2022/05/02 15:19:33;;;;;;;11.98;7.78;;;;;;;;;;5004597;28;98969;-73
2022/05/02 15:21:29;;;;;;;20.52;9.32;;;;;;;;;;5003007;28;98476;-73
2022/05/02 15:23:56;;;;;;;7.40;6.65;;;;;;;;;;4995277;28;100095;-71
2022/05/02 15:26:48;;;;;;;7.95;7.15;;;;;;;;;;5022010;28;100444;-75